createdAt,value
2019-01-08T00:02:24.684Z,13.87
2019-01-08T00:04:53.218Z,14.30
2019-01-08T00:07:21.787Z,13.37
2019-01-08T00:09:50.271Z,11.77
2019-01-08T00:12:18.852Z,13.50
2019-01-08T00:14:47.395Z,13.43
2019-01-08T00:17:15.975Z,14.83
2019-01-08T00:19:44.818Z,14.93
2019-01-08T00:22:13.383Z,16.40
2019-01-08T00:24:41.928Z,13.90
2019-01-08T00:27:10.495Z,15.00
2019-01-08T00:29:39.034Z,14.80
2019-01-08T00:32:07.579Z,15.67
2019-01-08T00:34:36.147Z,15.37
2019-01-08T00:37:04.615Z,14.87
2019-01-08T00:39:33.188Z,15.20
2019-01-08T00:42:01.794Z,14.47
2019-01-08T00:44:30.367Z,15.17
2019-01-08T00:46:58.907Z,14.40
2019-01-08T00:49:27.479Z,14.50
2019-01-08T00:51:55.942Z,14.50
2019-01-08T00:54:24.512Z,16.43
2019-01-08T00:56:53.051Z,13.93
2019-01-08T00:59:21.619Z,13.60
2019-01-08T01:01:50.159Z,13.10
2019-01-08T01:04:19.068Z,12.80
2019-01-08T01:06:47.601Z,14.70
2019-01-08T01:09:16.183Z,15.33
2019-01-08T01:11:44.725Z,13.30
2019-01-08T01:14:13.300Z,13.70
2019-01-08T01:16:41.839Z,13.10
2019-01-08T01:19:10.406Z,13.80
2019-01-08T01:21:38.948Z,14.23
2019-01-08T01:24:07.521Z,13.20
2019-01-08T01:26:36.054Z,12.67
2019-01-08T01:29:04.622Z,11.90
2019-01-08T01:31:33.163Z,11.03
2019-01-08T01:34:01.731Z,9.93
2019-01-08T01:36:30.274Z,10.63
2019-01-08T01:38:58.833Z,10.27
2019-01-08T01:41:27.302Z,10.57
2019-01-08T01:43:55.943Z,10.10
2019-01-08T01:46:24.479Z,9.50
2019-01-08T01:48:53.043Z,9.33
2019-01-08T01:51:21.510Z,10.33
2019-01-08T01:53:50.007Z,10.47
2019-01-08T01:56:18.542Z,8.60
2019-01-08T01:58:47.036Z,9.40
2019-01-08T02:01:15.576Z,9.20
2019-01-08T02:03:44.147Z,10.10
2019-01-08T02:06:12.968Z,8.80
2019-01-08T02:08:41.539Z,8.30
2019-01-08T02:11:10.078Z,8.50
2019-01-08T02:13:38.610Z,8.40
2019-01-08T02:16:07.183Z,7.60
2019-01-08T02:18:35.719Z,8.27
2019-01-08T02:21:04.350Z,8.43
2019-01-08T02:23:32.890Z,7.77
2019-01-08T02:26:01.447Z,6.50
2019-01-08T02:28:29.920Z,6.97
2019-01-08T02:30:58.487Z,5.80
2019-01-08T02:33:27.018Z,6.13
2019-01-08T02:35:55.835Z,6.20
2019-01-08T02:38:24.377Z,5.57
2019-01-08T02:40:52.951Z,6.93
2019-01-08T02:43:21.794Z,6.57
2019-01-08T02:45:50.359Z,5.90
2019-01-08T02:48:18.899Z,7.20
2019-01-08T02:50:47.467Z,6.27
2019-01-08T02:53:16.006Z,6.10
2019-01-08T02:55:44.574Z,6.10
2019-01-08T02:58:13.116Z,6.13
2019-01-08T03:00:41.746Z,6.20
2019-01-08T03:03:10.286Z,6.50
2019-01-08T03:05:38.774Z,8.00
2019-01-08T03:08:07.312Z,6.90
2019-01-08T03:10:35.874Z,7.50
2019-01-08T03:13:04.751Z,6.77
2019-01-08T03:15:33.319Z,7.00
2019-01-08T03:18:01.859Z,7.20
2019-01-08T03:20:30.427Z,6.57
2019-01-08T03:22:58.962Z,6.13
2019-01-08T03:25:27.455Z,6.73
2019-01-08T03:27:56.855Z,6.03
2019-01-08T03:30:25.412Z,6.17
2019-01-08T03:32:53.949Z,4.93
2019-01-08T03:35:22.514Z,5.10
2019-01-08T03:37:51.048Z,4.87
2019-01-08T03:40:19.610Z,4.97
2019-01-08T03:42:48.148Z,5.67
2019-01-08T03:45:16.707Z,5.53
2019-01-08T03:47:45.339Z,5.37
2019-01-08T03:50:13.947Z,4.27
2019-01-08T03:52:42.863Z,3.93
2019-01-08T03:55:11.483Z,3.43
2019-01-08T03:57:40.030Z,3.00
2019-01-08T04:00:11.452Z,3.40
2019-01-08T04:02:40.010Z,3.37
2019-01-08T04:05:08.612Z,3.40
2019-01-08T04:07:37.167Z,3.60
2019-01-08T04:10:07.756Z,3.27
2019-01-08T04:12:36.322Z,3.57
2019-01-08T04:15:05.702Z,2.93
2019-01-08T04:17:34.258Z,3.60
2019-01-08T04:20:03.058Z,2.83
2019-01-08T04:22:31.867Z,2.57
2019-01-08T04:25:00.326Z,2.27
2019-01-08T04:27:28.898Z,2.20
2019-01-08T04:29:57.429Z,2.57
2019-01-08T04:32:25.998Z,1.70
2019-01-08T04:34:54.531Z,2.00
2019-01-08T04:37:23.014Z,2.30
2019-01-08T04:39:51.471Z,2.00
2019-01-08T04:42:20.039Z,2.60
2019-01-08T04:44:48.581Z,2.30
2019-01-08T04:47:17.142Z,2.10
2019-01-08T04:49:45.682Z,2.47
2019-01-08T04:52:14.243Z,2.00
2019-01-08T04:54:43.112Z,1.83
2019-01-08T04:57:11.675Z,2.03
2019-01-08T04:59:40.215Z,2.07
2019-01-08T05:02:08.771Z,2.07
2019-01-08T05:04:37.311Z,2.07
2019-01-08T05:07:05.874Z,2.70
2019-01-08T05:09:34.410Z,2.30
2019-01-08T05:12:02.978Z,2.27
2019-01-08T05:14:31.763Z,2.90
2019-01-08T05:17:00.694Z,3.50
2019-01-08T05:19:29.231Z,1.97
2019-01-08T05:21:57.794Z,2.57
2019-01-08T05:24:26.260Z,2.43
2019-01-08T05:26:54.826Z,2.87
2019-01-08T05:29:23.369Z,3.07
2019-01-08T05:31:51.926Z,2.30
2019-01-08T05:34:20.467Z,2.40
2019-01-08T05:36:49.044Z,2.20
2019-01-08T05:39:17.578Z,2.53
2019-01-08T05:41:46.183Z,2.47
2019-01-08T05:44:14.670Z,2.80
2019-01-08T05:46:43.207Z,2.23
2019-01-08T05:49:11.775Z,2.77
2019-01-08T05:51:40.322Z,3.13
2019-01-08T05:54:08.882Z,2.87
2019-01-08T05:56:37.734Z,3.30
2019-01-08T05:59:06.298Z,3.87
2019-01-08T06:01:34.837Z,2.87
2019-01-08T06:04:03.678Z,3.43
2019-01-08T06:06:32.220Z,2.63
2019-01-08T06:09:00.787Z,3.20
2019-01-08T06:11:29.325Z,3.77
2019-01-08T06:13:57.903Z,2.83
2019-01-08T06:16:26.687Z,2.67
2019-01-08T06:18:55.251Z,3.17
2019-01-08T06:21:23.790Z,3.33
2019-01-08T06:23:52.354Z,3.33
2019-01-08T06:26:20.885Z,2.97
2019-01-08T06:28:49.369Z,2.57
2019-01-08T06:31:17.835Z,2.60
2019-01-08T06:33:46.755Z,2.00
2019-01-08T06:36:15.286Z,2.30
2019-01-08T06:38:43.774Z,2.10
2019-01-08T06:41:12.239Z,3.10
2019-01-08T06:43:40.798Z,2.30
2019-01-08T06:46:09.338Z,2.33
2019-01-08T06:48:38.237Z,2.00
2019-01-08T06:51:06.768Z,1.67
2019-01-08T06:53:35.331Z,2.77
2019-01-08T06:56:03.953Z,2.27
2019-01-08T06:58:32.435Z,2.90
2019-01-08T07:01:00.971Z,2.10
2019-01-08T07:03:29.526Z,3.20
2019-01-08T07:05:57.987Z,2.30
2019-01-08T07:08:26.549Z,2.07
2019-01-08T07:10:55.091Z,2.33
2019-01-08T07:13:23.651Z,2.97
2019-01-08T07:15:52.178Z,2.90
2019-01-08T07:18:20.662Z,2.37
2019-01-08T07:20:49.121Z,2.50
2019-01-08T07:23:17.857Z,2.23
2019-01-08T07:25:46.418Z,2.27
2019-01-08T07:28:14.959Z,2.73
2019-01-08T07:30:43.531Z,3.23
2019-01-08T07:33:12.063Z,3.90
2019-01-08T07:35:40.963Z,2.80
2019-01-08T07:38:09.504Z,2.67
2019-01-08T07:40:38.078Z,3.30
2019-01-08T07:43:06.611Z,3.00
2019-01-08T07:45:35.173Z,2.27
2019-01-08T07:48:03.714Z,2.97
2019-01-08T07:50:32.279Z,2.60
2019-01-08T07:53:00.811Z,2.33
2019-01-08T07:55:29.314Z,2.93
2019-01-08T07:57:57.805Z,2.93
2019-01-08T08:00:26.371Z,2.33
2019-01-08T08:02:55.246Z,2.63
2019-01-08T08:05:23.806Z,2.60
2019-01-08T08:07:52.270Z,2.53
2019-01-08T08:10:20.841Z,2.63
2019-01-08T08:12:49.374Z,2.93
2019-01-08T08:15:18.259Z,2.90
2019-01-08T08:17:46.791Z,3.53
2019-01-08T08:20:15.361Z,2.90
2019-01-08T08:22:43.898Z,3.13
2019-01-08T08:25:12.535Z,3.00
2019-01-08T08:27:41.066Z,2.37
2019-01-08T08:30:09.899Z,3.10
2019-01-08T08:32:38.428Z,2.63
2019-01-08T08:35:08.657Z,2.87
2019-01-08T08:37:37.631Z,2.80
2019-01-08T08:40:07.635Z,2.67
2019-01-08T08:42:36.175Z,2.97
2019-01-08T08:45:05.179Z,2.67
2019-01-08T08:47:33.642Z,2.27
2019-01-08T08:50:02.211Z,3.47
2019-01-08T08:52:30.749Z,2.90
2019-01-08T08:54:59.311Z,2.40
2019-01-08T08:57:27.847Z,2.77
2019-01-08T08:59:56.414Z,2.90
2019-01-08T09:02:24.951Z,2.70
2019-01-08T09:04:53.491Z,3.70
2019-01-08T09:07:22.053Z,2.80
2019-01-08T09:09:50.587Z,2.60
2019-01-08T09:12:19.156Z,3.00
2019-01-08T09:14:47.985Z,3.10
2019-01-08T09:17:16.547Z,2.47
2019-01-08T09:19:45.083Z,2.10
2019-01-08T09:22:13.639Z,2.73
2019-01-08T09:24:42.103Z,3.43
2019-01-08T09:27:10.666Z,2.50
2019-01-08T09:29:39.200Z,2.60
2019-01-08T09:32:07.766Z,3.20
2019-01-08T09:34:36.298Z,2.80
2019-01-08T09:37:04.780Z,2.47
2019-01-08T09:39:33.315Z,2.10
2019-01-08T09:42:01.879Z,2.40
2019-01-08T09:44:30.338Z,2.30
2019-01-08T09:46:59.223Z,3.80
2019-01-08T09:49:27.765Z,3.17
2019-01-08T09:51:56.322Z,2.97
2019-01-08T09:54:24.853Z,2.33
2019-01-08T09:56:53.437Z,2.53
2019-01-08T09:59:21.957Z,2.40
2019-01-08T10:01:50.523Z,1.97
2019-01-08T10:04:19.056Z,2.70
2019-01-08T10:06:47.623Z,2.30
2019-01-08T10:09:16.163Z,2.13
2019-01-08T10:11:44.735Z,1.97
2019-01-08T10:14:13.265Z,2.20
2019-01-08T10:16:41.834Z,2.40
2019-01-08T10:19:10.391Z,1.93
2019-01-08T10:21:38.955Z,2.33
2019-01-08T10:24:07.516Z,2.17
2019-01-08T10:26:36.055Z,2.27
2019-01-08T10:29:04.623Z,3.00
2019-01-08T10:31:33.163Z,2.60
2019-01-08T10:34:01.727Z,2.10
2019-01-08T10:36:30.263Z,2.53
2019-01-08T10:38:58.839Z,4.60
2019-01-08T10:41:27.375Z,2.07
2019-01-08T10:43:55.939Z,2.20
2019-01-08T10:46:24.757Z,2.00
2019-01-08T10:48:53.319Z,1.97
2019-01-08T10:51:22.119Z,2.20
2019-01-08T10:53:50.675Z,2.70
2019-01-08T10:56:19.211Z,2.13
2019-01-08T10:58:47.774Z,1.40
2019-01-08T11:01:16.319Z,2.10
2019-01-08T11:03:44.895Z,2.03
2019-01-08T11:06:13.414Z,2.60
2019-01-08T11:08:41.972Z,1.90
2019-01-08T11:11:10.503Z,2.30
2019-01-08T11:13:39.039Z,2.17
2019-01-08T11:16:07.606Z,2.03
2019-01-08T11:18:36.406Z,2.10
2019-01-08T11:21:05.034Z,1.83
2019-01-08T11:23:33.575Z,1.90
2019-01-08T11:26:02.143Z,2.13
2019-01-08T11:28:30.669Z,1.80
2019-01-08T11:30:59.155Z,2.00
2019-01-08T11:33:27.690Z,4.80
2019-01-08T11:35:56.258Z,3.23
2019-01-08T11:38:24.866Z,2.10
2019-01-08T11:40:53.430Z,2.17
2019-01-08T11:43:21.958Z,2.03
2019-01-08T11:45:50.591Z,1.77
2019-01-08T11:48:19.131Z,2.10
2019-01-08T11:50:47.687Z,2.40
2019-01-08T11:53:16.152Z,1.60
2019-01-08T11:55:44.710Z,1.90
2019-01-08T11:58:13.595Z,1.70
2019-01-08T12:00:42.149Z,2.00
2019-01-08T12:03:10.691Z,1.70
2019-01-08T12:05:39.255Z,2.00
2019-01-08T12:08:07.792Z,1.53
2019-01-08T12:10:36.358Z,2.00
2019-01-08T12:13:05.448Z,1.70
2019-01-08T12:15:34.082Z,1.90
2019-01-08T12:18:02.547Z,2.43
2019-01-08T12:20:31.086Z,1.90
2019-01-08T12:22:59.642Z,1.87
2019-01-08T12:25:29.545Z,1.63
2019-01-08T12:27:58.339Z,1.60
2019-01-08T12:30:26.866Z,1.80
2019-01-08T12:32:55.354Z,1.70
2019-01-08T12:35:23.883Z,1.73
2019-01-08T12:37:52.447Z,1.60
2019-01-08T12:40:20.986Z,2.30
2019-01-08T12:42:49.546Z,1.77
2019-01-08T12:45:18.087Z,1.47
2019-01-08T12:47:46.642Z,1.53
2019-01-08T12:50:15.171Z,1.60
2019-01-08T12:52:44.008Z,2.00
2019-01-08T12:55:13.113Z,2.03
2019-01-08T12:57:41.816Z,2.50
2019-01-08T13:00:11.758Z,1.90
2019-01-08T13:02:40.327Z,2.17
2019-01-08T13:05:08.935Z,2.23
2019-01-08T13:07:37.486Z,1.90
2019-01-08T13:10:07.785Z,1.87
2019-01-08T13:12:36.271Z,1.40
2019-01-08T13:15:05.770Z,1.93
2019-01-08T13:17:34.328Z,2.53
2019-01-08T13:20:02.869Z,1.90
2019-01-08T13:22:31.428Z,1.60
2019-01-08T13:24:59.959Z,2.17
2019-01-08T13:27:28.847Z,1.80
2019-01-08T13:29:59.001Z,2.07
2019-01-08T13:32:27.751Z,1.37
2019-01-08T13:34:56.291Z,1.90
2019-01-08T13:37:24.874Z,1.50
2019-01-08T13:39:55.327Z,1.70
2019-01-08T13:42:23.535Z,1.23
2019-01-08T13:44:52.396Z,1.67
2019-01-08T13:47:20.935Z,1.47
2019-01-08T13:49:49.499Z,1.00
2019-01-08T13:52:18.034Z,1.40
2019-01-08T13:54:46.843Z,1.20
2019-01-08T13:57:15.451Z,1.40
2019-01-08T13:59:44.015Z,1.47
2019-01-08T14:02:12.871Z,1.73
2019-01-08T14:04:41.426Z,1.03
2019-01-08T14:07:09.963Z,1.57
2019-01-08T14:09:38.517Z,1.67
2019-01-08T14:12:06.984Z,1.93
2019-01-08T14:14:35.539Z,1.70
2019-01-08T14:17:04.079Z,1.70
2019-01-08T14:19:32.635Z,1.50
2019-01-08T14:22:01.410Z,1.47
2019-01-08T14:24:29.898Z,1.53
2019-01-08T14:26:58.432Z,1.93
2019-01-08T14:29:26.923Z,2.20
2019-01-08T14:31:55.464Z,2.10
2019-01-08T14:34:24.021Z,1.90
2019-01-08T14:36:52.487Z,2.03
2019-01-08T14:39:21.051Z,1.60
2019-01-08T14:41:49.586Z,2.10
2019-01-08T14:44:18.152Z,2.10
2019-01-08T14:46:46.686Z,2.37
2019-01-08T14:49:15.251Z,1.50
2019-01-08T14:51:43.791Z,1.60
2019-01-08T14:54:12.340Z,1.70
2019-01-08T14:56:40.902Z,1.27
2019-01-08T14:59:09.433Z,1.40
2019-01-08T15:01:37.924Z,1.50
2019-01-08T15:04:06.458Z,2.30
2019-01-08T15:06:34.955Z,2.20
2019-01-08T15:09:04.431Z,1.63
2019-01-08T15:11:33.066Z,1.77
2019-01-08T15:14:01.594Z,2.20
2019-01-08T15:16:30.188Z,2.00
2019-01-08T15:18:59.075Z,1.93
2019-01-08T15:21:27.643Z,1.67
2019-01-08T15:23:56.188Z,3.60
2019-01-08T15:26:24.747Z,1.73
2019-01-08T15:28:53.282Z,1.87
2019-01-08T15:31:21.846Z,1.80
2019-01-08T15:33:50.379Z,1.93
2019-01-08T15:36:18.946Z,1.70
2019-01-08T15:38:47.479Z,1.53
2019-01-08T15:41:16.054Z,2.07
2019-01-08T15:43:44.582Z,1.37
2019-01-08T15:46:13.078Z,1.50
2019-01-08T15:48:41.611Z,1.70
2019-01-08T15:51:10.183Z,1.77
2019-01-08T15:53:39.330Z,1.97
2019-01-08T15:56:08.159Z,1.70
2019-01-08T15:58:36.768Z,2.27
2019-01-08T16:01:05.671Z,1.37
2019-01-08T16:03:34.186Z,1.90
2019-01-08T16:06:03.138Z,2.40
2019-01-08T16:08:31.671Z,3.50
2019-01-08T16:11:00.227Z,2.70
2019-01-08T16:13:28.766Z,2.53
2019-01-08T16:15:57.565Z,2.93
2019-01-08T16:18:26.094Z,2.03
2019-01-08T16:20:54.635Z,2.20
2019-01-08T16:23:23.190Z,2.20
2019-01-08T16:25:51.988Z,1.80
2019-01-08T16:28:20.545Z,1.97
2019-01-08T16:30:49.012Z,2.43
2019-01-08T16:33:17.590Z,1.67
2019-01-08T16:35:46.114Z,1.87
2019-01-08T16:38:14.602Z,1.70
2019-01-08T16:40:43.470Z,2.40
2019-01-08T16:43:12.041Z,1.93
2019-01-08T16:45:40.570Z,2.30
2019-01-08T16:48:09.133Z,2.10
2019-01-08T16:50:37.747Z,2.80
2019-01-08T16:53:06.312Z,5.03
2019-01-08T16:55:34.845Z,8.60
2019-01-08T16:58:03.644Z,11.93
2019-01-08T17:00:32.175Z,3.17
2019-01-08T17:03:00.821Z,5.73
2019-01-08T17:05:29.355Z,2.70
2019-01-08T17:07:57.921Z,2.87
2019-01-08T17:10:26.751Z,3.03
2019-01-08T17:12:55.320Z,2.50
2019-01-08T17:15:23.993Z,2.83
2019-01-08T17:17:52.559Z,3.20
2019-01-08T17:20:21.095Z,2.63
2019-01-08T17:22:49.659Z,1.87
2019-01-08T17:25:18.538Z,1.60
2019-01-08T17:27:47.099Z,5.60
2019-01-08T17:30:15.563Z,2.73
2019-01-08T17:32:44.120Z,4.27
2019-01-08T17:35:12.755Z,13.47
2019-01-08T17:37:41.290Z,26.03
2019-01-08T17:40:09.848Z,1.03
2019-01-08T17:42:38.386Z,1.30
2019-01-08T17:45:09.586Z,1.20
2019-01-08T17:47:38.110Z,2.17
2019-01-08T17:50:07.043Z,1.80
2019-01-08T17:52:35.579Z,1.20
2019-01-08T17:55:04.783Z,1.60
2019-01-08T17:57:33.339Z,1.83
2019-01-08T18:00:01.890Z,1.70
2019-01-08T18:02:30.359Z,1.60
2019-01-08T18:04:58.956Z,1.80
2019-01-08T18:07:27.478Z,1.37
2019-01-08T18:09:56.370Z,1.33
2019-01-08T18:12:24.906Z,1.50
2019-01-08T18:14:53.403Z,1.50
2019-01-08T18:17:22.007Z,1.30
2019-01-08T18:19:50.634Z,1.77
2019-01-08T18:22:19.179Z,1.60
2019-01-08T18:24:47.743Z,4.40
2019-01-08T18:27:16.307Z,4.07
2019-01-08T18:29:44.926Z,1.97
2019-01-08T18:32:13.465Z,1.93
2019-01-08T18:34:42.023Z,1.90
2019-01-08T18:37:10.560Z,2.30
2019-01-08T18:39:39.136Z,1.83
2019-01-08T18:42:07.746Z,1.77
2019-01-08T18:44:36.311Z,1.83
2019-01-08T18:47:05.186Z,2.30
2019-01-08T18:49:33.750Z,2.67
2019-01-08T18:52:02.550Z,2.70
2019-01-08T18:54:31.136Z,2.40
2019-01-08T18:56:59.674Z,2.47
2019-01-08T18:59:28.324Z,2.23
2019-01-08T19:01:56.865Z,5.73
2019-01-08T19:04:25.407Z,2.40
2019-01-08T19:06:53.979Z,2.90
2019-01-08T19:09:25.032Z,2.40
2019-01-08T19:11:54.235Z,2.47
2019-01-08T19:14:26.007Z,2.90
2019-01-08T19:16:54.575Z,2.23
2019-01-08T19:19:23.125Z,2.27
2019-01-08T19:21:51.771Z,2.83
2019-01-08T19:24:20.378Z,1.73
2019-01-08T19:26:50.251Z,2.40
2019-01-08T19:29:18.807Z,3.40
2019-01-08T19:31:47.578Z,3.50
2019-01-08T19:34:16.160Z,2.10
2019-01-08T19:36:44.793Z,2.37
2019-01-08T19:39:13.384Z,2.40
2019-01-08T19:41:41.923Z,2.40
2019-01-08T19:44:10.540Z,2.10
2019-01-08T19:46:39.129Z,1.97
2019-01-08T19:49:07.773Z,1.63
2019-01-08T19:51:36.256Z,2.53
2019-01-08T19:54:04.868Z,1.70
2019-01-08T19:56:33.458Z,2.60
2019-01-08T19:59:02.106Z,2.53
2019-01-08T20:01:30.679Z,2.47
2019-01-08T20:03:59.219Z,2.10
2019-01-08T20:06:28.067Z,3.13
2019-01-08T20:08:56.605Z,2.60
2019-01-08T20:11:25.174Z,2.90
2019-01-08T20:13:53.755Z,3.37
2019-01-08T20:16:23.167Z,2.13
2019-01-08T20:18:51.711Z,2.23
2019-01-08T20:21:20.295Z,2.70
2019-01-08T20:23:48.892Z,3.03
2019-01-08T20:26:17.839Z,3.17
2019-01-08T20:28:46.378Z,2.57
2019-01-08T20:31:14.966Z,2.67
2019-01-08T20:33:43.497Z,2.73
2019-01-08T20:36:12.074Z,2.83
2019-01-08T20:38:40.668Z,3.07
2019-01-08T20:41:09.210Z,2.10
2019-01-08T20:43:37.686Z,2.30
2019-01-08T20:46:06.269Z,1.40
2019-01-08T20:48:34.851Z,1.80
2019-01-08T20:51:03.388Z,2.07
2019-01-08T20:53:31.926Z,2.40
2019-01-08T20:56:00.523Z,2.70
2019-01-08T20:58:29.166Z,1.83
2019-01-08T21:00:57.698Z,2.07
2019-01-08T21:03:26.279Z,2.67
2019-01-08T21:05:54.819Z,2.23
2019-01-08T21:08:23.715Z,2.17
2019-01-08T21:10:52.248Z,2.00
2019-01-08T21:13:20.785Z,2.33
2019-01-08T21:15:49.691Z,1.70
2019-01-08T21:18:18.226Z,2.10
2019-01-08T21:20:47.322Z,1.70
2019-01-08T21:23:15.864Z,2.03
2019-01-08T21:25:44.458Z,2.20
2019-01-08T21:28:12.986Z,1.73
2019-01-08T21:30:41.758Z,2.00
2019-01-08T21:33:10.315Z,1.77
2019-01-08T21:35:38.895Z,1.80
2019-01-08T21:38:07.431Z,1.23
2019-01-08T21:40:36.002Z,1.67
2019-01-08T21:43:04.539Z,1.70
2019-01-08T21:45:33.131Z,1.80
2019-01-08T21:48:01.673Z,1.60
2019-01-08T21:50:30.202Z,1.90
2019-01-08T21:52:58.788Z,1.50
2019-01-08T21:55:27.319Z,1.10
2019-01-08T21:57:55.858Z,1.63
2019-01-08T22:00:24.611Z,1.40
2019-01-08T22:02:54.311Z,1.70
2019-01-08T22:05:22.966Z,2.10
2019-01-08T22:07:51.573Z,1.40
2019-01-08T22:10:20.177Z,1.90
2019-01-08T22:12:48.767Z,2.27
2019-01-08T22:15:17.368Z,2.20
2019-01-08T22:17:45.914Z,1.90
2019-01-08T22:20:14.455Z,1.70
2019-01-08T22:22:43.030Z,1.70
2019-01-08T22:25:11.567Z,1.93
2019-01-08T22:27:40.450Z,1.60
2019-01-08T22:30:09.327Z,1.90
2019-01-08T22:32:37.883Z,2.53
2019-01-08T22:35:06.537Z,2.43
2019-01-08T22:37:35.076Z,1.87
2019-01-08T22:40:03.930Z,2.10
2019-01-08T22:42:32.534Z,1.70
2019-01-08T22:45:00.990Z,1.50
2019-01-08T22:47:29.665Z,2.20
2019-01-08T22:49:58.131Z,2.13
2019-01-08T22:52:26.724Z,1.87
2019-01-08T22:54:55.637Z,2.07
2019-01-08T22:57:24.170Z,2.30
2019-01-08T22:59:52.816Z,1.60
2019-01-08T23:02:21.350Z,2.50
2019-01-08T23:04:49.958Z,1.60
2019-01-08T23:07:18.539Z,1.10
2019-01-08T23:09:47.114Z,1.57
2019-01-08T23:12:15.729Z,1.73
2019-01-08T23:14:44.298Z,1.30
2019-01-08T23:17:12.903Z,1.90
2019-01-08T23:19:41.371Z,1.27
2019-01-08T23:22:10.021Z,2.10
2019-01-08T23:24:38.591Z,1.50
2019-01-08T23:27:07.411Z,1.50
2019-01-08T23:29:36.299Z,2.03
2019-01-08T23:32:04.902Z,2.20
2019-01-08T23:34:33.435Z,1.53
2019-01-08T23:37:02.013Z,1.60
2019-01-08T23:39:30.591Z,2.23
2019-01-08T23:41:59.411Z,1.83
2019-01-08T23:44:27.991Z,1.47
2019-01-08T23:46:56.635Z,1.67
2019-01-08T23:49:25.219Z,1.70
2019-01-08T23:51:56.823Z,2.37
2019-01-08T23:54:27.756Z,1.90
2019-01-08T23:56:57.931Z,1.40
2019-01-08T23:59:26.471Z,1.67
